createdAt,value
2023-05-14T00:00:50.173Z,228.25
2023-05-14T00:01:50.250Z,226.45
2023-05-14T00:02:50.304Z,223.25
2023-05-14T00:03:50.308Z,221.00
2023-05-14T00:04:50.224Z,217.57
2023-05-14T00:05:50.232Z,217.84
2023-05-14T00:06:50.216Z,214.49
2023-05-14T00:07:50.239Z,216.25
2023-05-14T00:08:50.221Z,212.05
2023-05-14T00:09:50.256Z,205.10
2023-05-14T00:10:50.247Z,203.06
2023-05-14T00:11:50.258Z,201.66
2023-05-14T00:12:50.256Z,204.04
2023-05-14T00:13:50.277Z,199.21
2023-05-14T00:14:50.279Z,204.01
2023-05-14T00:15:50.328Z,201.48
2023-05-14T00:16:50.290Z,202.55
2023-05-14T00:17:50.407Z,199.86
2023-05-14T00:18:50.330Z,207.63
2023-05-14T00:19:50.354Z,203.25
2023-05-14T00:20:50.328Z,202.34
2023-05-14T00:21:50.333Z,207.70
2023-05-14T00:22:50.356Z,207.99
2023-05-14T00:23:50.361Z,209.42
2023-05-14T00:24:50.361Z,210.59
2023-05-14T00:25:50.387Z,211.55
2023-05-14T00:26:50.376Z,214.29
2023-05-14T00:27:50.387Z,216.00
2023-05-14T00:28:50.405Z,215.24
2023-05-14T00:29:50.420Z,214.82
2023-05-14T00:30:50.410Z,217.17
2023-05-14T00:31:50.502Z,216.60
2023-05-14T00:32:50.492Z,211.91
2023-05-14T00:33:50.445Z,212.37
2023-05-14T00:34:50.461Z,211.54
2023-05-14T00:35:50.466Z,209.37
2023-05-14T00:36:50.464Z,206.30
2023-05-14T00:37:50.477Z,204.81
2023-05-14T00:38:50.502Z,204.51
2023-05-14T00:39:50.520Z,200.67
2023-05-14T00:40:50.496Z,196.99
2023-05-14T00:41:50.518Z,197.54
2023-05-14T00:42:50.537Z,194.86
2023-05-14T00:43:50.529Z,193.17
2023-05-14T00:44:50.538Z,194.21
2023-05-14T00:45:50.542Z,197.89
2023-05-14T00:46:50.581Z,196.08
2023-05-14T00:47:50.622Z,199.59
2023-05-14T00:48:50.550Z,196.72
2023-05-14T00:49:50.577Z,200.91
2023-05-14T00:50:50.564Z,203.11
2023-05-14T00:51:50.585Z,203.59
2023-05-14T00:52:50.609Z,204.99
2023-05-14T00:53:50.621Z,204.46
2023-05-14T00:54:50.596Z,206.71
2023-05-14T00:55:50.602Z,202.81
2023-05-14T00:56:50.617Z,200.29
2023-05-14T00:57:50.639Z,200.76
2023-05-14T00:58:50.627Z,205.19
2023-05-14T00:59:50.636Z,200.55
2023-05-14T01:00:50.663Z,200.13
2023-05-14T01:01:50.651Z,197.60
2023-05-14T01:02:50.789Z,195.59
2023-05-14T01:03:50.729Z,197.22
2023-05-14T01:04:50.715Z,197.09
2023-05-14T01:05:50.701Z,192.18
2023-05-14T01:06:50.702Z,193.75
2023-05-14T01:07:50.725Z,192.15
2023-05-14T01:08:50.718Z,192.77
2023-05-14T01:09:50.748Z,190.62
2023-05-14T01:10:50.745Z,191.41
2023-05-14T01:11:50.767Z,191.80
2023-05-14T01:12:50.765Z,190.76
2023-05-14T01:13:50.785Z,196.53
2023-05-14T01:14:50.776Z,196.13
2023-05-14T01:15:50.796Z,195.78
2023-05-14T01:16:51.014Z,198.15
2023-05-14T01:17:50.838Z,194.97
2023-05-14T01:18:50.983Z,198.89
2023-05-14T01:19:50.841Z,198.54
2023-05-14T01:20:50.834Z,198.31
2023-05-14T01:21:50.845Z,199.26
2023-05-14T01:22:50.869Z,200.05
2023-05-14T01:23:50.884Z,199.90
2023-05-14T01:24:50.939Z,200.22
2023-05-14T01:25:50.905Z,203.36
2023-05-14T01:26:50.906Z,206.68
2023-05-14T01:27:50.915Z,206.15
2023-05-14T01:28:50.928Z,205.32
2023-05-14T01:29:50.957Z,206.50
2023-05-14T01:30:50.962Z,206.26
2023-05-14T01:31:51.007Z,205.60
2023-05-14T01:32:51.248Z,206.89
2023-05-14T01:33:50.994Z,208.60
2023-05-14T01:34:51.014Z,207.71
2023-05-14T01:35:51.023Z,207.41
2023-05-14T01:36:51.030Z,210.33
2023-05-14T01:37:51.045Z,206.14
2023-05-14T01:38:51.135Z,211.11
2023-05-14T01:39:51.078Z,210.18
2023-05-14T01:40:51.135Z,211.06
2023-05-14T01:41:51.122Z,208.76
2023-05-14T01:42:51.152Z,207.33
2023-05-14T01:43:51.155Z,210.33
2023-05-14T01:44:51.174Z,210.30
2023-05-14T01:45:51.230Z,206.88
2023-05-14T01:46:51.159Z,210.09
2023-05-14T01:47:51.245Z,209.35
2023-05-14T01:48:51.180Z,208.75
2023-05-14T01:49:51.202Z,207.27
2023-05-14T01:50:51.204Z,205.96
2023-05-14T01:51:51.225Z,206.07
2023-05-14T01:52:51.238Z,206.28
2023-05-14T01:53:51.259Z,208.51
2023-05-14T01:54:51.263Z,204.23
2023-05-14T01:55:51.257Z,209.09
2023-05-14T01:56:51.289Z,205.60
2023-05-14T01:57:51.317Z,206.04
2023-05-14T01:58:51.327Z,205.42
2023-05-14T01:59:51.334Z,201.19
2023-05-14T02:00:51.352Z,200.99
2023-05-14T02:01:51.453Z,199.33
2023-05-14T02:02:51.445Z,195.29
2023-05-14T02:03:51.451Z,190.60
2023-05-14T02:04:51.389Z,195.21
2023-05-14T02:05:51.424Z,193.45
2023-05-14T02:06:51.413Z,192.79
2023-05-14T02:07:51.443Z,191.71
2023-05-14T02:08:51.455Z,190.56
2023-05-14T02:09:51.464Z,192.81
2023-05-14T02:10:51.471Z,196.37
2023-05-14T02:11:51.483Z,198.16
2023-05-14T02:12:51.487Z,197.55
2023-05-14T02:13:51.529Z,195.06
2023-05-14T02:14:51.562Z,195.27
2023-05-14T02:15:51.587Z,199.98
2023-05-14T02:16:51.579Z,195.44
2023-05-14T02:17:51.634Z,195.11
2023-05-14T02:18:51.678Z,192.60
2023-05-14T02:19:51.626Z,191.93
2023-05-14T02:20:51.647Z,195.16
2023-05-14T02:21:51.693Z,197.50
2023-05-14T02:22:51.677Z,191.17
2023-05-14T02:23:51.691Z,193.54
2023-05-14T02:24:51.738Z,194.29
2023-05-14T02:25:51.723Z,194.47
2023-05-14T02:26:51.753Z,193.62
2023-05-14T02:27:51.752Z,191.52
2023-05-14T02:28:51.784Z,193.53
2023-05-14T02:29:51.782Z,193.31
2023-05-14T02:30:51.800Z,193.63
2023-05-14T02:31:51.946Z,195.65
2023-05-14T02:32:51.922Z,193.34
2023-05-14T02:33:51.859Z,190.34
2023-05-14T02:34:51.865Z,190.58
2023-05-14T02:35:51.895Z,194.13
2023-05-14T02:36:51.902Z,191.76
2023-05-14T02:37:51.928Z,190.10
2023-05-14T02:38:51.913Z,190.62
2023-05-14T02:39:51.921Z,190.30
2023-05-14T02:40:51.950Z,191.34
2023-05-14T02:41:51.948Z,189.39
2023-05-14T02:42:51.961Z,191.55
2023-05-14T02:43:51.975Z,191.46
2023-05-14T02:44:52.017Z,188.00
2023-05-14T02:45:52.027Z,189.20
2023-05-14T02:46:52.079Z,187.68
2023-05-14T02:47:52.094Z,191.75
2023-05-14T02:48:52.055Z,189.10
2023-05-14T02:49:52.078Z,189.10
2023-05-14T02:50:52.151Z,192.61
2023-05-14T02:51:52.101Z,188.07
2023-05-14T02:52:52.135Z,185.19
2023-05-14T02:53:52.133Z,185.73
2023-05-14T02:54:52.141Z,186.95
2023-05-14T02:55:52.184Z,187.57
2023-05-14T02:56:52.192Z,184.63
2023-05-14T02:57:52.208Z,186.18
2023-05-14T02:58:52.246Z,185.90
2023-05-14T02:59:52.236Z,188.81
2023-05-14T03:00:52.308Z,188.21
2023-05-14T03:01:52.353Z,188.15
2023-05-14T03:02:52.371Z,190.30
2023-05-14T03:03:52.322Z,192.61
2023-05-14T03:04:52.323Z,189.99
2023-05-14T03:05:52.345Z,190.24
2023-05-14T03:06:52.370Z,186.97
2023-05-14T03:07:52.377Z,183.16
2023-05-14T03:08:52.411Z,188.39
2023-05-14T03:09:52.419Z,186.55
2023-05-14T03:10:52.454Z,185.19
2023-05-14T03:11:52.461Z,189.93
2023-05-14T03:12:52.487Z,188.83
2023-05-14T03:13:52.514Z,189.13
2023-05-14T03:14:52.522Z,191.85
2023-05-14T03:15:52.545Z,190.77
2023-05-14T03:16:52.616Z,187.67
2023-05-14T03:17:52.634Z,190.31
2023-05-14T03:18:52.655Z,193.53
2023-05-14T03:19:52.635Z,186.33
2023-05-14T03:20:52.657Z,189.91
2023-05-14T03:21:52.662Z,189.86
2023-05-14T03:22:52.688Z,189.65
2023-05-14T03:23:52.717Z,191.51
2023-05-14T03:24:52.734Z,192.79
2023-05-14T03:25:52.742Z,190.85
2023-05-14T03:26:52.762Z,191.00
2023-05-14T03:27:52.789Z,193.22
2023-05-14T03:28:52.812Z,190.87
2023-05-14T03:29:52.839Z,196.29
2023-05-14T03:30:52.906Z,196.18
2023-05-14T03:31:52.860Z,196.30
2023-05-14T03:32:52.925Z,194.66
2023-05-14T03:33:52.912Z,185.04
2023-05-14T03:34:52.929Z,192.71
2023-05-14T03:35:52.961Z,190.88
2023-05-14T03:36:52.979Z,191.28
2023-05-14T03:37:53.030Z,192.89
2023-05-14T03:38:53.039Z,194.76
2023-05-14T03:39:53.050Z,196.33
2023-05-14T03:40:53.076Z,190.72
2023-05-14T03:41:53.091Z,190.93
2023-05-14T03:42:53.110Z,192.22
2023-05-14T03:43:53.151Z,190.71
2023-05-14T03:44:53.174Z,190.98
2023-05-14T03:45:53.233Z,188.29
2023-05-14T03:46:53.223Z,191.25
2023-05-14T03:47:53.431Z,193.17
2023-05-14T03:48:53.303Z,193.07
2023-05-14T03:49:53.296Z,193.89
2023-05-14T03:50:53.319Z,191.15
2023-05-14T03:51:53.347Z,192.86
2023-05-14T03:52:53.380Z,189.47
2023-05-14T03:53:53.397Z,187.57
2023-05-14T03:54:53.426Z,188.06
2023-05-14T03:55:53.457Z,183.93
2023-05-14T03:56:53.462Z,183.98
2023-05-14T03:57:53.481Z,186.22
2023-05-14T03:58:53.517Z,186.42
2023-05-14T03:59:53.543Z,185.67
2023-05-14T04:00:53.564Z,185.57
2023-05-14T04:01:53.572Z,182.47
2023-05-14T04:02:53.727Z,187.31
2023-05-14T04:03:53.745Z,185.12
2023-05-14T04:04:53.769Z,187.55
2023-05-14T04:05:53.741Z,185.30
2023-05-14T04:06:53.742Z,187.51
2023-05-14T04:07:53.750Z,189.45
2023-05-14T04:08:53.797Z,186.39
2023-05-14T04:09:53.785Z,189.27
2023-05-14T04:10:53.829Z,187.90
2023-05-14T04:11:53.863Z,185.52
2023-05-14T04:12:53.904Z,186.58
2023-05-14T04:13:53.899Z,185.00
2023-05-14T04:14:53.939Z,186.07
2023-05-14T04:15:53.976Z,185.21
2023-05-14T04:16:53.982Z,186.41
2023-05-14T04:17:54.042Z,181.68
2023-05-14T04:18:54.107Z,184.75
2023-05-14T04:19:54.079Z,188.53
2023-05-14T04:20:54.114Z,184.68
2023-05-14T04:21:54.126Z,181.76
2023-05-14T04:22:54.145Z,181.02
2023-05-14T04:23:54.169Z,181.55
2023-05-14T04:24:54.215Z,178.54
2023-05-14T04:25:54.245Z,174.11
2023-05-14T04:26:54.258Z,175.31
2023-05-14T04:27:54.297Z,170.29
2023-05-14T04:28:54.302Z,170.61
2023-05-14T04:29:54.349Z,170.26
2023-05-14T04:30:54.372Z,173.60
2023-05-14T04:31:54.422Z,173.71
2023-05-14T04:32:54.471Z,170.45
2023-05-14T04:33:54.517Z,169.79
2023-05-14T04:34:54.481Z,171.37
2023-05-14T04:35:54.492Z,171.07
2023-05-14T04:36:54.542Z,170.30
2023-05-14T04:37:54.572Z,171.44
2023-05-14T04:38:54.578Z,168.78
2023-05-14T04:39:54.597Z,170.90
2023-05-14T04:40:54.632Z,168.95
2023-05-14T04:41:54.641Z,166.77
2023-05-14T04:42:54.674Z,167.82
2023-05-14T04:43:54.698Z,171.52
2023-05-14T04:44:54.694Z,173.31
2023-05-14T04:45:54.759Z,170.49
2023-05-14T04:46:54.759Z,165.91
2023-05-14T04:47:54.867Z,166.16
2023-05-14T04:48:54.786Z,165.96
2023-05-14T04:49:54.808Z,165.09
2023-05-14T04:50:54.854Z,162.80
2023-05-14T04:51:54.866Z,162.22
2023-05-14T04:52:54.883Z,160.88
2023-05-14T04:53:54.933Z,163.08
2023-05-14T04:54:54.922Z,161.86
2023-05-14T04:55:54.952Z,163.86
2023-05-14T04:56:54.978Z,164.29
2023-05-14T04:57:54.992Z,161.58
2023-05-14T04:58:55.010Z,161.12
2023-05-14T04:59:55.038Z,164.11
2023-05-14T05:00:55.072Z,161.41
2023-05-14T05:01:55.076Z,162.99
2023-05-14T05:02:55.146Z,162.59
2023-05-14T05:03:55.214Z,161.64
2023-05-14T05:04:55.135Z,157.60
2023-05-14T05:05:55.164Z,161.51
2023-05-14T05:06:55.200Z,159.71
2023-05-14T05:07:55.206Z,159.41
2023-05-14T05:08:55.243Z,155.93
2023-05-14T05:09:55.253Z,156.70
2023-05-14T05:10:55.288Z,154.85
2023-05-14T05:11:55.327Z,157.53
2023-05-14T05:12:55.356Z,157.01
2023-05-14T05:13:55.372Z,158.65
2023-05-14T05:14:55.400Z,152.59
2023-05-14T05:15:55.457Z,159.16
2023-05-14T05:16:55.455Z,157.07
2023-05-14T05:17:55.520Z,155.12
2023-05-14T05:18:55.546Z,153.54
2023-05-14T05:19:55.515Z,154.13
2023-05-14T05:20:55.540Z,152.19
2023-05-14T05:21:55.584Z,149.28
2023-05-14T05:22:55.586Z,158.44
2023-05-14T05:23:55.603Z,151.56
2023-05-14T05:24:55.646Z,155.96
2023-05-14T05:25:55.660Z,153.45
2023-05-14T05:26:55.679Z,152.31
2023-05-14T05:27:55.705Z,155.56
2023-05-14T05:28:55.750Z,154.44
2023-05-14T05:29:55.763Z,151.62
2023-05-14T05:30:55.861Z,151.25
2023-05-14T05:31:55.870Z,151.55
2023-05-14T05:32:55.851Z,147.77
2023-05-14T05:33:55.871Z,149.14
2023-05-14T05:34:55.899Z,142.28
2023-05-14T05:35:55.933Z,143.05
2023-05-14T05:36:55.927Z,141.13
2023-05-14T05:37:55.973Z,140.32
2023-05-14T05:38:55.981Z,138.34
2023-05-14T05:39:56.013Z,141.30
2023-05-14T05:40:56.050Z,138.02
2023-05-14T05:41:56.063Z,134.15
2023-05-14T05:42:56.092Z,140.92
2023-05-14T05:43:56.108Z,138.99
2023-05-14T05:44:56.144Z,137.73
2023-05-14T05:45:56.189Z,137.24
2023-05-14T05:46:56.337Z,139.26
2023-05-14T05:47:56.255Z,136.07
2023-05-14T05:48:56.284Z,137.36
2023-05-14T05:49:56.241Z,137.29
2023-05-14T05:50:56.271Z,138.47
2023-05-14T05:51:56.294Z,136.14
2023-05-14T05:52:56.312Z,136.53
2023-05-14T05:53:56.342Z,141.46
2023-05-14T05:54:56.373Z,138.80
2023-05-14T05:55:56.404Z,139.91
2023-05-14T05:56:56.437Z,141.48
2023-05-14T05:57:56.442Z,137.55
2023-05-14T05:58:56.517Z,134.82
2023-05-14T05:59:56.511Z,134.31
2023-05-14T06:00:56.537Z,136.50
2023-05-14T06:01:56.587Z,135.19
2023-05-14T06:02:56.694Z,134.73
2023-05-14T06:03:56.611Z,141.83
2023-05-14T06:04:56.696Z,137.48
2023-05-14T06:05:56.666Z,137.95
2023-05-14T06:06:56.684Z,134.65
2023-05-14T06:07:56.728Z,134.14
2023-05-14T06:08:56.752Z,132.11
2023-05-14T06:09:56.755Z,131.37
2023-05-14T06:10:56.790Z,128.56
2023-05-14T06:11:56.803Z,131.35
2023-05-14T06:12:56.839Z,127.99
2023-05-14T06:13:56.885Z,128.86
2023-05-14T06:14:56.892Z,125.79
2023-05-14T06:15:56.893Z,129.53
2023-05-14T06:16:56.941Z,128.41
2023-05-14T06:17:57.041Z,119.80
2023-05-14T06:18:57.026Z,118.02
2023-05-14T06:19:56.979Z,111.22
2023-05-14T06:20:57.004Z,111.20
2023-05-14T06:21:57.020Z,109.16
2023-05-14T06:22:57.052Z,109.50
2023-05-14T06:23:57.088Z,101.63
2023-05-14T06:24:57.088Z,106.62
2023-05-14T06:25:57.104Z,113.58
2023-05-14T06:26:57.110Z,107.41
2023-05-14T06:27:57.154Z,111.75
2023-05-14T06:28:57.152Z,109.55
2023-05-14T06:29:57.202Z,109.56
2023-05-14T06:30:57.208Z,105.23
2023-05-14T06:31:57.359Z,109.89
2023-05-14T06:32:57.301Z,112.47
2023-05-14T06:33:57.251Z,113.45
2023-05-14T06:34:57.273Z,113.84
2023-05-14T06:35:57.312Z,112.34
2023-05-14T06:36:57.309Z,112.31
2023-05-14T06:37:57.301Z,114.86
2023-05-14T06:38:57.336Z,113.91
2023-05-14T06:39:58.065Z,110.34
2023-05-14T06:40:57.347Z,106.47
2023-05-14T06:41:57.363Z,107.19
2023-05-14T06:42:57.398Z,103.26
2023-05-14T06:43:57.406Z,103.46
2023-05-14T06:44:57.429Z,103.71
2023-05-14T06:45:57.459Z,101.97
2023-05-14T06:46:57.470Z,102.09
2023-05-14T06:47:57.545Z,102.42
2023-05-14T06:48:59.308Z,100.60
2023-05-14T06:49:57.497Z,97.85
2023-05-14T06:50:57.509Z,95.19
2023-05-14T06:51:57.508Z,99.05
2023-05-14T06:52:57.540Z,97.61
2023-05-14T06:53:57.543Z,97.55
2023-05-14T06:54:57.558Z,105.84
2023-05-14T06:55:57.580Z,100.00
2023-05-14T06:56:57.593Z,103.82
2023-05-14T06:57:57.616Z,100.28
2023-05-14T06:58:57.596Z,106.63
2023-05-14T06:59:57.610Z,102.12
2023-05-14T07:00:57.620Z,102.58
2023-05-14T07:01:57.672Z,99.66
2023-05-14T07:02:57.688Z,97.24
2023-05-14T07:03:57.692Z,103.46
2023-05-14T07:04:57.675Z,99.96
2023-05-14T07:05:57.670Z,100.57
2023-05-14T07:06:57.693Z,97.92
2023-05-14T07:07:57.685Z,99.05
2023-05-14T07:08:57.714Z,99.20
2023-05-14T07:09:57.712Z,101.45
2023-05-14T07:10:57.721Z,105.24
2023-05-14T07:11:57.747Z,105.24
2023-05-14T07:12:57.737Z,106.14
2023-05-14T07:13:57.749Z,107.09
2023-05-14T07:14:57.740Z,104.86
2023-05-14T07:15:57.772Z,99.71
2023-05-14T07:16:57.786Z,102.66
2023-05-14T07:17:57.848Z,103.46
2023-05-14T07:18:57.814Z,99.67
2023-05-14T07:19:57.806Z,101.85
2023-05-14T07:20:57.826Z,105.28
2023-05-14T07:21:57.819Z,106.66
2023-05-14T07:22:57.846Z,105.61
2023-05-14T07:23:57.849Z,102.34
2023-05-14T07:24:57.843Z,96.68
2023-05-14T07:25:57.870Z,98.44
2023-05-14T07:26:57.876Z,99.89
2023-05-14T07:27:57.891Z,106.20
2023-05-14T07:28:57.899Z,101.66
2023-05-14T07:29:57.912Z,100.46
2023-05-14T07:30:57.954Z,94.93
2023-05-14T07:31:57.942Z,97.15
2023-05-14T07:32:57.998Z,96.87
2023-05-14T07:33:57.977Z,102.04
2023-05-14T07:34:57.985Z,103.90
2023-05-14T07:35:57.980Z,106.13
2023-05-14T07:36:58.001Z,107.73
2023-05-14T07:37:58.004Z,106.74
2023-05-14T07:38:58.011Z,110.66
2023-05-14T07:39:58.009Z,117.42
2023-05-14T07:40:58.022Z,117.14
2023-05-14T07:41:58.034Z,117.30
2023-05-14T07:42:58.032Z,119.47
2023-05-14T07:43:58.046Z,118.55
2023-05-14T07:44:58.040Z,117.14
2023-05-14T07:45:58.023Z,121.30
2023-05-14T07:46:58.069Z,120.64
2023-05-14T07:47:58.199Z,126.32
2023-05-14T07:48:58.028Z,128.80
2023-05-14T07:49:58.049Z,129.39
2023-05-14T07:50:58.034Z,127.63
2023-05-14T07:51:58.023Z,129.67
2023-05-14T07:52:58.035Z,130.16
2023-05-14T07:53:58.007Z,133.80
2023-05-14T07:54:58.050Z,131.80
2023-05-14T07:55:58.013Z,133.24
2023-05-14T07:56:58.000Z,132.12
2023-05-14T07:57:57.992Z,138.35
2023-05-14T07:58:58.036Z,140.81
2023-05-14T07:59:58.057Z,139.07
2023-05-14T08:00:58.018Z,138.66
2023-05-14T08:01:58.129Z,135.74
2023-05-14T08:02:58.209Z,136.19
2023-05-14T08:03:58.167Z,129.53
2023-05-14T08:04:58.060Z,130.70
2023-05-14T08:05:58.090Z,127.73
2023-05-14T08:06:58.071Z,132.57
2023-05-14T08:07:58.107Z,131.75
2023-05-14T08:08:58.130Z,132.77
2023-05-14T08:09:58.121Z,127.05
2023-05-14T08:10:58.222Z,116.85
2023-05-14T08:11:58.189Z,124.21
2023-05-14T08:12:58.185Z,109.63
2023-05-14T08:13:58.206Z,117.47
2023-05-14T08:14:58.213Z,121.52
2023-05-14T08:15:58.258Z,136.68
2023-05-14T08:16:58.477Z,144.33
2023-05-14T08:17:58.372Z,148.34
2023-05-14T08:18:58.440Z,159.21
2023-05-14T08:19:58.395Z,158.08
2023-05-14T08:20:58.464Z,167.76
2023-05-14T08:21:58.541Z,179.75
2023-05-14T08:22:58.587Z,186.18
2023-05-14T08:23:58.648Z,190.89
2023-05-14T08:24:58.709Z,192.23
2023-05-14T08:25:58.760Z,194.30
2023-05-14T08:26:58.836Z,189.14
2023-05-14T08:27:58.891Z,188.30
2023-05-14T08:28:58.946Z,186.39
2023-05-14T08:29:59.019Z,179.22
2023-05-14T08:30:59.138Z,176.54
2023-05-14T08:32:01.794Z,177.72
2023-05-14T08:33:00.178Z,178.03
2023-05-14T08:33:59.119Z,178.45
2023-05-14T08:34:59.129Z,180.67
2023-05-14T08:35:59.106Z,182.26
2023-05-14T08:36:59.112Z,181.42
2023-05-14T08:37:59.080Z,186.25
2023-05-14T08:38:59.088Z,184.05
2023-05-14T08:39:59.080Z,182.00
2023-05-14T08:40:59.091Z,183.42
2023-05-14T08:41:59.052Z,185.29
2023-05-14T08:42:59.047Z,190.00
2023-05-14T08:43:59.097Z,184.36
2023-05-14T08:44:59.161Z,190.23
2023-05-14T08:45:59.195Z,187.03
2023-05-14T08:46:59.255Z,185.62
2023-05-14T08:47:59.335Z,184.51
2023-05-14T08:48:59.362Z,188.07
2023-05-14T08:49:59.375Z,186.92
2023-05-14T08:50:59.422Z,185.41
2023-05-14T08:51:59.447Z,186.68
2023-05-14T08:52:59.529Z,185.37
2023-05-14T08:53:59.533Z,186.14
2023-05-14T08:54:59.572Z,188.13
2023-05-14T08:55:59.611Z,184.63
2023-05-14T08:56:59.646Z,185.61
2023-05-14T08:57:59.666Z,179.42
2023-05-14T08:58:59.689Z,180.96
2023-05-14T08:59:59.733Z,182.44
2023-05-14T09:00:59.773Z,179.01
2023-05-14T09:01:59.898Z,180.59
2023-05-14T09:02:59.863Z,174.20
2023-05-14T09:03:59.859Z,177.61
2023-05-14T09:04:59.916Z,177.46
2023-05-14T09:06:00.326Z,180.69
2023-05-14T09:06:59.930Z,180.31
2023-05-14T09:07:59.950Z,177.76
2023-05-14T09:08:59.958Z,179.40
2023-05-14T09:09:59.997Z,180.35
2023-05-14T09:10:59.994Z,172.33
2023-05-14T09:12:00.036Z,172.08
2023-05-14T09:13:00.037Z,167.41
2023-05-14T09:14:00.047Z,169.09
2023-05-14T09:15:00.055Z,171.61
2023-05-14T09:16:00.095Z,168.04
2023-05-14T09:17:00.102Z,173.38
2023-05-14T09:18:00.178Z,171.04
2023-05-14T09:19:00.180Z,168.07
2023-05-14T09:20:00.100Z,166.19
2023-05-14T09:21:00.115Z,168.01
2023-05-14T09:22:00.118Z,169.55
2023-05-14T09:23:00.154Z,171.06
2023-05-14T09:24:00.142Z,173.74
2023-05-14T09:25:00.088Z,169.70
2023-05-14T09:26:00.080Z,170.20
2023-05-14T09:27:00.076Z,168.65
2023-05-14T09:28:00.153Z,164.92
2023-05-14T09:29:00.091Z,164.50
2023-05-14T09:30:00.125Z,159.79
2023-05-14T09:31:00.110Z,162.88
2023-05-14T09:32:00.341Z,162.48
2023-05-14T09:33:00.191Z,158.55
2023-05-14T09:34:00.193Z,155.53
2023-05-14T09:35:00.250Z,150.14
2023-05-14T09:36:00.295Z,155.95
2023-05-14T09:37:00.336Z,153.88
2023-05-14T09:38:00.341Z,152.96
2023-05-14T09:39:00.354Z,154.24
2023-05-14T09:40:00.393Z,154.36
2023-05-14T09:41:00.431Z,156.84
2023-05-14T09:42:00.430Z,157.41
2023-05-14T09:43:00.470Z,159.74
2023-05-14T09:44:00.534Z,161.95
2023-05-14T09:45:00.555Z,160.24
2023-05-14T09:46:00.612Z,160.09
2023-05-14T09:47:00.674Z,163.11
2023-05-14T09:48:00.769Z,165.40
2023-05-14T09:49:00.690Z,162.09
2023-05-14T09:50:00.737Z,163.48
2023-05-14T09:51:01.843Z,165.31
2023-05-14T09:52:00.807Z,170.33
2023-05-14T09:53:00.860Z,169.05
2023-05-14T09:54:00.899Z,172.60
2023-05-14T09:55:00.939Z,174.94
2023-05-14T09:56:00.956Z,174.28
2023-05-14T09:57:00.994Z,170.62
2023-05-14T09:58:01.022Z,172.63
2023-05-14T09:59:01.058Z,174.07
2023-05-14T10:00:01.111Z,176.12
2023-05-14T10:01:01.155Z,177.48
2023-05-14T10:02:01.160Z,175.40
2023-05-14T10:03:01.218Z,176.77
2023-05-14T10:04:01.284Z,179.01
2023-05-14T10:05:01.289Z,180.24
2023-05-14T10:06:01.326Z,181.47
2023-05-14T10:07:01.391Z,179.60
2023-05-14T10:08:01.453Z,178.35
2023-05-14T10:09:01.517Z,176.34
2023-05-14T10:10:01.566Z,178.92
2023-05-14T10:11:01.682Z,178.52
2023-05-14T10:12:01.694Z,177.09
2023-05-14T10:13:01.760Z,174.88
2023-05-14T10:14:01.837Z,180.19
2023-05-14T10:15:01.899Z,180.41
2023-05-14T10:16:01.972Z,180.84
2023-05-14T10:17:02.040Z,179.15
2023-05-14T10:18:02.130Z,178.94
2023-05-14T10:19:02.160Z,177.86
2023-05-14T10:20:02.199Z,176.85
2023-05-14T10:21:02.271Z,173.15
2023-05-14T10:22:02.324Z,179.67
2023-05-14T10:23:02.387Z,177.22
2023-05-14T10:24:02.460Z,174.39
2023-05-14T10:25:02.526Z,170.84
2023-05-14T10:26:02.588Z,167.44
2023-05-14T10:27:02.644Z,170.13
2023-05-14T10:28:02.707Z,172.36
2023-05-14T10:29:02.752Z,169.75
2023-05-14T10:30:02.810Z,171.80
2023-05-14T10:31:02.926Z,174.33
2023-05-14T10:32:03.028Z,173.28
2023-05-14T10:33:03.169Z,175.41
2023-05-14T10:34:03.064Z,174.89
2023-05-14T10:35:03.187Z,175.28
2023-05-14T10:36:03.194Z,172.03
2023-05-14T10:37:03.249Z,177.92
2023-05-14T10:38:03.315Z,176.64
2023-05-14T10:39:03.376Z,176.69
2023-05-14T10:40:03.437Z,176.34
2023-05-14T10:41:03.489Z,174.96
2023-05-14T10:42:03.562Z,177.59
2023-05-14T10:43:03.631Z,177.67
2023-05-14T10:44:03.674Z,176.94
2023-05-14T10:45:03.733Z,177.53
2023-05-14T10:46:03.836Z,173.66
2023-05-14T10:47:03.936Z,176.64
2023-05-14T10:48:03.952Z,177.23
2023-05-14T10:49:04.007Z,180.69
2023-05-14T10:50:04.059Z,169.90
2023-05-14T10:51:04.157Z,170.52
2023-05-14T10:52:04.184Z,177.34
2023-05-14T10:53:04.242Z,180.01
2023-05-14T10:54:04.299Z,182.92
2023-05-14T10:55:04.368Z,176.41
2023-05-14T10:56:04.425Z,177.92
2023-05-14T10:57:04.489Z,176.50
2023-05-14T10:58:04.563Z,176.64
2023-05-14T10:59:04.627Z,173.18
2023-05-14T11:00:04.681Z,172.48
2023-05-14T11:01:04.750Z,176.34
2023-05-14T11:02:05.013Z,172.52
2023-05-14T11:03:04.868Z,173.55
2023-05-14T11:04:04.963Z,175.01
2023-05-14T11:05:04.966Z,178.74
2023-05-14T11:06:05.045Z,177.13
2023-05-14T11:07:05.086Z,177.98
2023-05-14T11:08:05.183Z,175.69
2023-05-14T11:09:05.224Z,178.82
2023-05-14T11:10:05.270Z,177.73
2023-05-14T11:11:05.333Z,172.35
2023-05-14T11:12:05.390Z,170.44
2023-05-14T11:13:05.453Z,175.61
2023-05-14T11:14:05.530Z,166.74
2023-05-14T11:15:05.583Z,169.13
2023-05-14T11:16:15.516Z,176.24
2023-05-14T11:17:06.678Z,176.34
2023-05-14T11:18:05.710Z,172.44
2023-05-14T11:19:05.691Z,172.71
2023-05-14T11:20:05.668Z,172.87
2023-05-14T11:21:05.662Z,173.87
2023-05-14T11:22:05.609Z,173.72
2023-05-14T11:23:05.617Z,174.50
2023-05-14T11:24:05.650Z,172.68
2023-05-14T11:25:05.631Z,176.44
2023-05-14T11:26:05.712Z,167.39
2023-05-14T11:27:05.778Z,162.23
2023-05-14T11:28:05.840Z,163.59
2023-05-14T11:29:05.896Z,167.03
2023-05-14T11:30:05.968Z,165.89
2023-05-14T11:31:06.037Z,170.63
2023-05-14T11:32:06.197Z,168.60
2023-05-14T11:33:06.175Z,165.17
2023-05-14T11:34:06.209Z,161.93
2023-05-14T11:35:06.264Z,162.85
2023-05-14T11:36:06.326Z,165.13
2023-05-14T11:37:06.387Z,163.46
2023-05-14T11:38:07.999Z,161.74
2023-05-14T11:39:06.441Z,159.36
2023-05-14T11:40:06.439Z,160.59
2023-05-14T11:41:06.452Z,163.58
2023-05-14T11:42:06.421Z,165.30
2023-05-14T11:43:06.435Z,160.15
2023-05-14T11:44:08.539Z,156.95
2023-05-14T11:45:06.405Z,157.17
2023-05-14T11:46:06.429Z,157.15
2023-05-14T11:47:06.383Z,158.57
2023-05-14T11:48:06.437Z,158.40
2023-05-14T11:49:06.370Z,154.51
2023-05-14T11:50:09.127Z,154.28
2023-05-14T11:51:06.350Z,154.47
2023-05-14T11:52:06.358Z,154.53
2023-05-14T11:53:06.359Z,155.49
2023-05-14T11:54:06.351Z,153.78
2023-05-14T11:55:06.344Z,154.17
2023-05-14T11:56:08.894Z,154.22
2023-05-14T11:57:06.333Z,154.42
2023-05-14T11:58:06.327Z,155.13
2023-05-14T11:59:06.321Z,155.86
2023-05-14T12:00:06.332Z,155.36
2023-05-14T12:01:06.306Z,151.26
2023-05-14T12:02:06.307Z,152.96
2023-05-14T12:03:06.330Z,158.27
2023-05-14T12:04:06.350Z,153.61
2023-05-14T12:05:06.271Z,155.02
2023-05-14T12:06:06.277Z,150.90
2023-05-14T12:07:06.268Z,153.85
2023-05-14T12:08:06.259Z,149.66
2023-05-14T12:09:06.238Z,152.06
2023-05-14T12:10:06.260Z,155.24
2023-05-14T12:11:06.222Z,152.46
2023-05-14T12:12:06.237Z,152.94
2023-05-14T12:13:06.210Z,152.18
2023-05-14T12:14:06.219Z,156.36
2023-05-14T12:15:06.191Z,157.67
2023-05-14T12:16:06.219Z,154.18
2023-05-14T12:17:06.189Z,151.66
2023-05-14T12:18:16.938Z,152.73
2023-05-14T12:19:07.222Z,153.24
2023-05-14T12:20:06.182Z,154.17
2023-05-14T12:21:06.153Z,155.77
2023-05-14T12:22:06.156Z,154.37
2023-05-14T12:23:06.145Z,156.27
2023-05-14T12:24:06.150Z,161.33
2023-05-14T12:25:06.137Z,159.68
2023-05-14T12:26:06.399Z,162.85
2023-05-14T12:27:06.135Z,160.35
2023-05-14T12:28:06.124Z,159.58
2023-05-14T12:29:06.102Z,159.93
2023-05-14T12:30:27.399Z,159.26